Time;durP1;ratioP1;P1;durP2;ratioP2;P2;SDS_P1;SDS_P2;PMS_P1;PMS_P2;Temp;Humidity;BMP_temperature;BMP_pressure;BME280_temperature;BME280_humidity;BME280_pressure;Samples;Min_cycle;Max_cycle;Signal;HPM_P1;HPM_P2
2021/12/29 00:01:24;;;;;;;6.80;1.02;;;;;;;;;;5020303;28;20033;-78
2021/12/29 00:03:50;;;;;;;5.07;1.23;;;;;;;;;;5030596;28;20500;-78
2021/12/29 00:06:15;;;;;;;2.63;0.82;;;;;;;;;;5030767;28;20030;-77
2021/12/29 00:08:41;;;;;;;1.98;0.82;;;;;;;;;;5018437;28;20745;-80
2021/12/29 00:11:07;;;;;;;4.10;0.95;;;;;;;;;;5015180;28;20068;-80
2021/12/29 00:13:33;;;;;;;1.63;1.05;;;;;;;;;;5012010;28;20048;-78
2021/12/29 00:16:00;;;;;;;4.05;1.10;;;;;;;;;;5019483;28;20041;-79
2021/12/29 00:18:32;;;;;;;9.43;1.27;;;;;;;;;;5026252;28;20053;-79
2021/12/29 00:20:59;;;;;;;7.10;1.00;;;;;;;;;;5011897;28;20113;-79
2021/12/29 00:23:25;;;;;;;3.50;1.02;;;;;;;;;;5018805;28;20038;-80
2021/12/29 00:25:52;;;;;;;5.28;1.42;;;;;;;;;;5015900;28;20413;-79
2021/12/29 00:28:17;;;;;;;4.93;0.70;;;;;;;;;;5018036;28;20049;-79
2021/12/29 00:30:43;;;;;;;3.50;1.00;;;;;;;;;;5009912;28;20041;-79
2021/12/29 00:33:28;;;;;;;10.90;1.30;;;;;;;;;;5016204;28;20053;-80
2021/12/29 00:36:12;;;;;;;3.70;1.10;;;;;;;;;;5016909;28;20080;-79
2021/12/29 00:38:56;;;;;;;4.50;0.68;;;;;;;;;;5017445;28;20108;-80
2021/12/29 00:41:40;;;;;;;4.35;1.20;;;;;;;;;;5007584;28;20073;-79
2021/12/29 00:44:24;;;;;;;2.00;1.05;;;;;;;;;;5015540;28;20161;-78
2021/12/29 00:46:53;;;;;;;2.33;1.10;;;;;;;;;;5026090;28;20057;-78
2021/12/29 00:49:19;;;;;;;2.80;1.02;;;;;;;;;;5014785;28;20044;-78
2021/12/29 00:51:45;;;;;;;3.15;1.05;;;;;;;;;;5025985;28;20096;-78
2021/12/29 00:54:10;;;;;;;7.43;1.73;;;;;;;;;;5012301;28;20033;-78
2021/12/29 00:56:37;;;;;;;8.75;1.25;;;;;;;;;;4995982;28;20477;-79
2021/12/29 00:59:02;;;;;;;5.43;1.60;;;;;;;;;;5013241;28;20049;-78
2021/12/29 01:01:29;;;;;;;2.35;1.08;;;;;;;;;;5024110;28;20033;-78
2021/12/29 01:03:55;;;;;;;3.05;1.52;;;;;;;;;;5018311;28;20036;-78
2021/12/29 01:06:20;;;;;;;3.88;1.05;;;;;;;;;;5012606;28;20042;-78
2021/12/29 01:08:46;;;;;;;6.50;1.15;;;;;;;;;;5013511;28;20029;-78
2021/12/29 01:11:12;;;;;;;5.40;1.23;;;;;;;;;;5016083;28;20046;-79
2021/12/29 01:13:45;;;;;;;3.83;0.85;;;;;;;;;;5004456;28;20103;-79
2021/12/29 01:18:55;;;;;;;7.43;1.30;;;;;;;;;;5016452;28;20021;-79
2021/12/29 01:21:20;;;;;;;4.35;1.25;;;;;;;;;;5015968;28;20033;-78
2021/12/29 01:23:46;;;;;;;2.22;1.00;;;;;;;;;;5014691;28;20118;-78
2021/12/29 01:26:12;;;;;;;2.65;1.00;;;;;;;;;;5019974;28;20172;-78
2021/12/29 01:28:37;;;;;;;2.10;1.02;;;;;;;;;;5014466;28;20043;-78
2021/12/29 01:31:03;;;;;;;3.60;1.05;;;;;;;;;;5022614;28;20503;-78
2021/12/29 01:33:28;;;;;;;2.97;0.90;;;;;;;;;;5034222;28;20416;-78
2021/12/29 01:35:54;;;;;;;6.75;1.90;;;;;;;;;;5026990;28;20029;-78
2021/12/29 01:38:19;;;;;;;9.73;1.77;;;;;;;;;;5016484;28;20069;-79
2021/12/29 01:40:48;;;;;;;5.10;0.98;;;;;;;;;;5016590;28;20038;-79
2021/12/29 01:43:14;;;;;;;1.65;0.82;;;;;;;;;;5017415;28;20137;-79
2021/12/29 01:45:40;;;;;;;2.25;0.82;;;;;;;;;;5022669;28;20051;-79
2021/12/29 01:48:06;;;;;;;11.02;1.23;;;;;;;;;;5007128;28;20046;-79
2021/12/29 01:50:32;;;;;;;2.80;1.25;;;;;;;;;;5015530;28;20038;-80
2021/12/29 01:53:03;;;;;;;5.75;1.17;;;;;;;;;;5014106;28;20030;-79
2021/12/29 01:55:30;;;;;;;6.55;1.40;;;;;;;;;;5013876;28;20069;-79
2021/12/29 01:57:57;;;;;;;4.47;1.02;;;;;;;;;;5019042;28;20124;-78
2021/12/29 02:00:26;;;;;;;4.55;1.45;;;;;;;;;;5015610;28;20034;-79
2021/12/29 02:02:52;;;;;;;3.75;1.10;;;;;;;;;;5033736;28;20037;-78
2021/12/29 02:05:17;;;;;;;3.47;0.80;;;;;;;;;;5033568;28;20127;-79
2021/12/29 02:07:44;;;;;;;9.52;1.23;;;;;;;;;;5034849;28;20041;-78
2021/12/29 02:10:11;;;;;;;4.50;1.52;;;;;;;;;;4999301;28;20021;-79
2021/12/29 02:12:37;;;;;;;4.07;0.82;;;;;;;;;;5013556;28;20033;-78
2021/12/29 02:15:05;;;;;;;3.00;1.23;;;;;;;;;;4996492;28;20128;-78
2021/12/29 02:17:32;;;;;;;4.68;1.15;;;;;;;;;;5035434;28;20041;-78
2021/12/29 02:19:59;;;;;;;6.68;1.90;;;;;;;;;;5026107;28;20497;-78
2021/12/29 02:25:08;;;;;;;6.32;1.30;;;;;;;;;;5012020;28;20048;-77
2021/12/29 02:27:37;;;;;;;3.10;0.77;;;;;;;;;;5012899;28;20161;-78
2021/12/29 02:30:04;;;;;;;5.30;0.80;;;;;;;;;;5012632;28;20485;-78
2021/12/29 02:32:30;;;;;;;5.68;1.20;;;;;;;;;;5020092;28;20029;-78
2021/12/29 02:34:55;;;;;;;4.57;1.10;;;;;;;;;;4995185;28;20037;-78
2021/12/29 02:37:22;;;;;;;5.68;1.20;;;;;;;;;;5015113;28;20116;-79
2021/12/29 02:39:49;;;;;;;6.40;1.67;;;;;;;;;;5015773;28;20108;-79
2021/12/29 02:42:15;;;;;;;9.05;2.67;;;;;;;;;;5006660;28;20034;-79
2021/12/29 02:44:42;;;;;;;6.35;1.00;;;;;;;;;;5021965;28;20030;-79
2021/12/29 02:47:09;;;;;;;8.50;1.50;;;;;;;;;;5035146;28;20049;-79
2021/12/29 02:49:35;;;;;;;1.95;1.00;;;;;;;;;;5037049;28;20079;-78
2021/12/29 02:52:00;;;;;;;3.67;1.00;;;;;;;;;;5036150;28;20061;-79
2021/12/29 02:54:26;;;;;;;4.63;1.50;;;;;;;;;;5015193;28;20037;-80
2021/12/29 02:56:54;;;;;;;3.83;1.35;;;;;;;;;;5015105;28;20042;-79
2021/12/29 02:59:21;;;;;;;4.20;1.70;;;;;;;;;;5013984;28;20926;-79
2021/12/29 03:01:47;;;;;;;8.00;1.73;;;;;;;;;;5027235;28;20072;-79
2021/12/29 03:04:13;;;;;;;9.05;1.42;;;;;;;;;;5023406;28;20444;-78
2021/12/29 03:06:39;;;;;;;2.10;0.95;;;;;;;;;;5010517;28;20049;-79
2021/12/29 03:09:06;;;;;;;7.65;1.42;;;;;;;;;;5036614;28;20045;-80
2021/12/29 03:11:32;;;;;;;8.10;1.45;;;;;;;;;;5022722;28;20080;-79
2021/12/29 03:13:58;;;;;;;3.72;0.88;;;;;;;;;;5022632;28;20042;-79
2021/12/29 03:16:24;;;;;;;6.88;1.08;;;;;;;;;;5028139;28;20029;-82
2021/12/29 03:18:50;;;;;;;2.20;0.82;;;;;;;;;;5011710;28;20041;-78
2021/12/29 03:21:16;;;;;;;4.20;1.45;;;;;;;;;;5031358;28;20456;-78
2021/12/29 03:23:42;;;;;;;5.80;1.55;;;;;;;;;;5029431;28;20041;-78
2021/12/29 03:26:08;;;;;;;2.67;0.63;;;;;;;;;;5013844;28;20065;-79
2021/12/29 03:28:35;;;;;;;3.63;1.15;;;;;;;;;;5016576;28;20080;-79
2021/12/29 03:31:01;;;;;;;3.92;1.15;;;;;;;;;;5017022;28;20045;-79
2021/12/29 03:33:28;;;;;;;4.18;1.30;;;;;;;;;;5002792;28;20055;-80
2021/12/29 03:35:57;;;;;;;2.42;0.90;;;;;;;;;;5030823;28;20538;-80
2021/12/29 03:38:24;;;;;;;6.35;1.15;;;;;;;;;;5015041;28;20038;-79
2021/12/29 03:40:51;;;;;;;3.00;0.77;;;;;;;;;;5013462;28;20034;-80
2021/12/29 03:43:18;;;;;;;3.85;0.95;;;;;;;;;;5015962;28;20030;-79
2021/12/29 03:45:46;;;;;;;5.82;1.38;;;;;;;;;;5021699;28;20034;-80
2021/12/29 03:48:13;;;;;;;4.40;1.38;;;;;;;;;;5017528;28;20466;-79
2021/12/29 03:50:39;;;;;;;4.50;0.98;;;;;;;;;;4999049;28;20085;-79
2021/12/29 03:53:06;;;;;;;1.88;0.90;;;;;;;;;;5015880;28;20114;-79
2021/12/29 03:55:32;;;;;;;5.93;0.70;;;;;;;;;;5015453;28;20068;-79
2021/12/29 03:57:57;;;;;;;6.05;1.25;;;;;;;;;;5016591;28;20037;-80
2021/12/29 04:00:23;;;;;;;8.93;1.40;;;;;;;;;;5019319;28;20883;-79
2021/12/29 04:02:49;;;;;;;5.30;1.27;;;;;;;;;;5037237;28;20108;-79
2021/12/29 04:05:21;;;;;;;3.92;1.00;;;;;;;;;;5034862;28;20517;-79
2021/12/29 04:07:47;;;;;;;6.32;1.30;;;;;;;;;;5034608;28;20826;-78
2021/12/29 04:10:14;;;;;;;4.78;1.05;;;;;;;;;;5014214;28;20568;-78
2021/12/29 04:12:40;;;;;;;5.97;1.08;;;;;;;;;;4995180;28;20390;-78
2021/12/29 04:15:08;;;;;;;6.18;1.30;;;;;;;;;;5013073;28;20033;-78
2021/12/29 04:17:37;;;;;;;4.10;1.30;;;;;;;;;;5034441;28;20092;-78
2021/12/29 04:22:50;;;;;;;5.45;1.33;;;;;;;;;;5012147;28;20076;-78
2021/12/29 04:25:15;;;;;;;3.15;0.85;;;;;;;;;;5013289;28;20038;-78
2021/12/29 04:27:41;;;;;;;3.83;0.75;;;;;;;;;;5013360;28;20498;-78
2021/12/29 04:30:06;;;;;;;0.90;0.60;;;;;;;;;;5017496;28;20037;-78
2021/12/29 04:32:32;;;;;;;2.20;0.55;;;;;;;;;;5022211;28;20041;-78
2021/12/29 04:34:57;;;;;;;5.63;1.00;;;;;;;;;;5014866;28;20530;-78
2021/12/29 04:37:23;;;;;;;6.93;1.30;;;;;;;;;;4997240;28;20042;-77
2021/12/29 04:39:48;;;;;;;3.78;0.80;;;;;;;;;;5019487;28;20041;-78
2021/12/29 04:42:14;;;;;;;5.78;0.98;;;;;;;;;;5023691;28;20066;-78
2021/12/29 04:44:39;;;;;;;6.18;0.93;;;;;;;;;;5014650;28;20045;-78
2021/12/29 04:47:07;;;;;;;2.10;0.75;;;;;;;;;;5030998;28;20065;-78
2021/12/29 04:49:40;;;;;;;7.13;0.80;;;;;;;;;;5034623;28;20484;-78
2021/12/29 04:52:06;;;;;;;8.52;1.10;;;;;;;;;;5034193;28;20033;-79
2021/12/29 04:54:32;;;;;;;4.13;1.38;;;;;;;;;;5019410;28;20112;-79
2021/12/29 04:56:59;;;;;;;7.15;1.25;;;;;;;;;;5014815;28;20034;-79
2021/12/29 04:59:25;;;;;;;3.83;1.10;;;;;;;;;;5017776;28;20049;-78
2021/12/29 05:01:51;;;;;;;1.45;0.55;;;;;;;;;;5030714;28;20034;-78
2021/12/29 05:04:22;;;;;;;2.53;0.93;;;;;;;;;;5022356;28;20156;-78
2021/12/29 05:09:32;;;;;;;2.95;0.70;;;;;;;;;;5012901;28;20406;-79
2021/12/29 05:12:01;;;;;;;3.70;1.02;;;;;;;;;;5012552;28;20467;-75
2021/12/29 05:14:28;;;;;;;2.78;0.70;;;;;;;;;;5010086;28;20130;-74
2021/12/29 05:16:54;;;;;;;4.88;0.98;;;;;;;;;;5018654;28;20112;-75
2021/12/29 05:19:19;;;;;;;7.32;1.33;;;;;;;;;;5020379;28;20116;-74
2021/12/29 05:21:45;;;;;;;3.38;1.25;;;;;;;;;;5003953;28;20041;-75
2021/12/29 05:24:10;;;;;;;25.15;1.30;;;;;;;;;;5019361;28;20916;-75
2021/12/29 05:26:36;;;;;;;3.63;0.65;;;;;;;;;;5018584;28;20057;-74
2021/12/29 05:29:02;;;;;;;1.63;0.75;;;;;;;;;;5008250;28;20116;-75
2021/12/29 05:31:28;;;;;;;4.25;1.13;;;;;;;;;;5017202;28;20582;-73
2021/12/29 05:33:55;;;;;;;5.07;1.38;;;;;;;;;;5027888;28;20029;-74
2021/12/29 05:36:20;;;;;;;2.55;0.80;;;;;;;;;;5009669;28;20120;-73
2021/12/29 05:38:46;;;;;;;1.33;0.60;;;;;;;;;;5011867;28;20196;-72
2021/12/29 05:41:11;;;;;;;2.08;0.93;;;;;;;;;;5008093;28;20041;-73
2021/12/29 05:43:37;;;;;;;7.07;0.95;;;;;;;;;;5037503;22;20049;-70
2021/12/29 05:46:02;;;;;;;10.90;1.30;;;;;;;;;;5020459;28;20046;-70
2021/12/29 05:48:28;;;;;;;10.68;2.08;;;;;;;;;;4996783;28;20041;-70
2021/12/29 05:50:54;;;;;;;7.10;1.20;;;;;;;;;;5009816;28;20030;-70
2021/12/29 05:53:19;;;;;;;3.58;0.90;;;;;;;;;;5010122;28;20111;-70
2021/12/29 05:55:45;;;;;;;4.90;0.88;;;;;;;;;;5009835;28;20077;-70
2021/12/29 05:58:10;;;;;;;4.13;1.10;;;;;;;;;;5008784;28;20045;-70
2021/12/29 06:00:38;;;;;;;2.10;0.70;;;;;;;;;;4992456;28;20073;-70
2021/12/29 06:03:03;;;;;;;3.20;0.80;;;;;;;;;;5011712;28;20065;-70
2021/12/29 06:05:29;;;;;;;7.68;1.45;;;;;;;;;;5013258;28;20069;-70
2021/12/29 06:07:55;;;;;;;5.20;0.80;;;;;;;;;;4995394;28;20060;-69
2021/12/29 06:10:20;;;;;;;2.90;0.65;;;;;;;;;;5012268;28;20030;-70
2021/12/29 06:12:46;;;;;;;5.60;1.00;;;;;;;;;;4995152;28;20500;-69
2021/12/29 06:15:12;;;;;;;4.60;1.30;;;;;;;;;;5012710;28;20434;-70
2021/12/29 06:17:38;;;;;;;5.28;0.93;;;;;;;;;;5012900;28;20048;-70
2021/12/29 06:20:06;;;;;;;7.32;1.10;;;;;;;;;;5013075;28;20072;-70
2021/12/29 06:22:32;;;;;;;8.63;1.20;;;;;;;;;;5012485;28;20025;-70
2021/12/29 06:24:57;;;;;;;4.68;1.17;;;;;;;;;;5012888;28;20096;-69
2021/12/29 06:27:23;;;;;;;3.67;0.90;;;;;;;;;;5012755;28;20414;-69
2021/12/29 06:29:49;;;;;;;2.97;0.65;;;;;;;;;;5012337;28;20072;-70
2021/12/29 06:32:16;;;;;;;3.33;1.05;;;;;;;;;;5011730;28;20022;-70
2021/12/29 06:34:42;;;;;;;5.47;1.13;;;;;;;;;;5012437;28;20389;-70
2021/12/29 06:37:12;;;;;;;3.70;1.13;;;;;;;;;;5012345;28;20121;-71
2021/12/29 06:39:42;;;;;;;3.53;0.90;;;;;;;;;;5012286;28;20042;-71
2021/12/29 06:42:08;;;;;;;4.75;1.05;;;;;;;;;;4994377;28;20034;-70
2021/12/29 06:44:34;;;;;;;1.95;1.60;;;;;;;;;;4994354;28;20030;-69
2021/12/29 06:46:59;;;;;;;2.30;0.90;;;;;;;;;;4996621;28;20449;-69
2021/12/29 06:49:25;;;;;;;8.48;1.38;;;;;;;;;;4992745;28;20141;-70
2021/12/29 06:51:51;;;;;;;2.00;0.85;;;;;;;;;;4992748;28;20038;-70
2021/12/29 06:54:17;;;;;;;4.20;1.77;;;;;;;;;;5001443;28;20080;-70
2021/12/29 06:56:42;;;;;;;1.58;0.88;;;;;;;;;;4994448;28;20387;-70
2021/12/29 06:59:08;;;;;;;3.95;1.10;;;;;;;;;;4994354;28;20136;-70
2021/12/29 07:01:33;;;;;;;0.75;0.65;;;;;;;;;;5009585;28;20034;-71
2021/12/29 07:03:59;;;;;;;4.43;0.98;;;;;;;;;;4988523;28;20060;-70
2021/12/29 07:06:24;;;;;;;5.05;0.70;;;;;;;;;;5010914;28;20029;-69
2021/12/29 07:08:50;;;;;;;2.53;0.73;;;;;;;;;;5006113;28;20382;-70
2021/12/29 07:11:15;;;;;;;1.50;0.65;;;;;;;;;;5001729;28;20026;-70
2021/12/29 07:13:42;;;;;;;1.98;0.50;;;;;;;;;;5000951;28;20029;-70
2021/12/29 07:16:08;;;;;;;1.17;0.60;;;;;;;;;;5001360;28;20089;-71
2021/12/29 07:18:34;;;;;;;3.20;1.00;;;;;;;;;;4997890;28;20069;-71
2021/12/29 07:20:59;;;;;;;2.22;0.70;;;;;;;;;;5001065;28;20041;-72
2021/12/29 07:23:25;;;;;;;3.25;1.15;;;;;;;;;;5002981;28;20029;-71
2021/12/29 07:25:50;;;;;;;1.63;0.60;;;;;;;;;;4996475;28;20034;-72
2021/12/29 07:28:16;;;;;;;2.00;0.70;;;;;;;;;;5004749;28;20118;-71
2021/12/29 07:30:41;;;;;;;1.52;0.68;;;;;;;;;;5005877;28;20022;-71
2021/12/29 07:33:06;;;;;;;2.35;0.70;;;;;;;;;;4986201;28;20109;-71
2021/12/29 07:35:32;;;;;;;4.78;0.98;;;;;;;;;;4991210;28;20034;-71
2021/12/29 07:37:57;;;;;;;3.03;0.70;;;;;;;;;;4996270;28;20038;-71
2021/12/29 07:40:23;;;;;;;0.50;0.50;;;;;;;;;;5004542;28;20029;-71
2021/12/29 07:42:48;;;;;;;3.55;0.77;;;;;;;;;;5004886;28;20501;-72
2021/12/29 07:45:14;;;;;;;1.63;0.68;;;;;;;;;;5008600;28;20589;-73
2021/12/29 07:47:46;;;;;;;9.50;0.98;;;;;;;;;;4996796;28;20533;-74
2021/12/29 07:50:14;;;;;;;2.47;0.90;;;;;;;;;;4997812;28;20089;-73
2021/12/29 07:52:39;;;;;;;1.55;0.60;;;;;;;;;;4996399;28;20109;-74
2021/12/29 07:55:06;;;;;;;6.82;1.13;;;;;;;;;;4997155;28;20153;-72
2021/12/29 07:57:31;;;;;;;3.17;0.70;;;;;;;;;;5007409;28;20040;-73
2021/12/29 07:59:57;;;;;;;3.65;0.80;;;;;;;;;;4985667;28;20034;-73
2021/12/29 08:02:27;;;;;;;0.38;0.38;;;;;;;;;;4984010;28;20095;-73
2021/12/29 08:04:58;;;;;;;2.53;0.95;;;;;;;;;;5000933;28;20042;-72
2021/12/29 08:07:25;;;;;;;2.28;0.60;;;;;;;;;;4973529;28;20452;-74
2021/12/29 08:09:52;;;;;;;1.65;0.68;;;;;;;;;;4989527;28;20042;-74
2021/12/29 08:12:18;;;;;;;6.57;0.70;;;;;;;;;;4988238;28;20048;-74
2021/12/29 08:14:45;;;;;;;1.02;0.38;;;;;;;;;;4969682;28;20041;-74
2021/12/29 08:17:11;;;;;;;1.63;0.57;;;;;;;;;;4982679;28;20040;-74
2021/12/29 08:19:36;;;;;;;4.10;0.85;;;;;;;;;;4999982;28;20034;-74
2021/12/29 08:22:02;;;;;;;3.80;0.70;;;;;;;;;;4981237;28;20034;-74
2021/12/29 08:24:28;;;;;;;0.38;0.38;;;;;;;;;;4991312;28;20068;-77
2021/12/29 08:26:53;;;;;;;4.60;0.90;;;;;;;;;;4965486;28;20081;-75
2021/12/29 08:29:19;;;;;;;2.83;0.80;;;;;;;;;;5005074;28;20026;-75
2021/12/29 08:31:44;;;;;;;2.15;0.60;;;;;;;;;;4986161;28;20494;-75
2021/12/29 08:34:10;;;;;;;3.30;0.65;;;;;;;;;;4975081;28;20037;-75
2021/12/29 08:36:36;;;;;;;1.40;1.00;;;;;;;;;;5006094;28;20053;-76
2021/12/29 08:39:02;;;;;;;3.00;0.68;;;;;;;;;;4985133;28;20038;-74
2021/12/29 08:41:28;;;;;;;2.42;0.50;;;;;;;;;;5005147;28;20030;-74
2021/12/29 08:43:53;;;;;;;2.83;0.73;;;;;;;;;;4985897;28;20054;-74
2021/12/29 08:46:19;;;;;;;0.52;0.45;;;;;;;;;;4986438;28;20042;-74
2021/12/29 08:48:46;;;;;;;3.88;0.88;;;;;;;;;;4981150;28;20462;-73
2021/12/29 08:51:11;;;;;;;3.17;0.85;;;;;;;;;;5004821;28;20491;-72
2021/12/29 08:53:37;;;;;;;1.10;0.60;;;;;;;;;;4972476;28;20056;-74
2021/12/29 08:56:05;;;;;;;0.60;0.50;;;;;;;;;;4985465;28;20034;-74
2021/12/29 08:58:30;;;;;;;1.02;0.30;;;;;;;;;;5001118;28;20037;-74
2021/12/29 09:00:56;;;;;;;1.33;0.38;;;;;;;;;;5002526;28;20031;-73
2021/12/29 09:03:22;;;;;;;0.93;0.40;;;;;;;;;;4992471;28;20045;-74
2021/12/29 09:05:48;;;;;;;2.58;0.70;;;;;;;;;;5008802;28;20585;-73
2021/12/29 09:08:15;;;;;;;3.40;0.75;;;;;;;;;;4992360;28;20029;-73
2021/12/29 09:10:41;;;;;;;2.60;0.47;;;;;;;;;;4958945;28;20053;-73
2021/12/29 09:13:07;;;;;;;2.30;0.95;;;;;;;;;;4990742;28;20501;-72
2021/12/29 09:15:33;;;;;;;4.78;0.88;;;;;;;;;;4994545;28;20160;-72
2021/12/29 09:17:59;;;;;;;1.02;0.60;;;;;;;;;;5009493;28;20026;-72
2021/12/29 09:20:28;;;;;;;2.25;0.60;;;;;;;;;;4974529;28;20156;-73
2021/12/29 09:22:55;;;;;;;2.63;0.70;;;;;;;;;;5010584;28;20065;-74
2021/12/29 09:25:22;;;;;;;3.55;0.82;;;;;;;;;;4995960;28;20070;-74
2021/12/29 09:27:50;;;;;;;4.63;0.80;;;;;;;;;;4984011;28;20030;-74
2021/12/29 09:30:20;;;;;;;1.88;0.63;;;;;;;;;;5000027;28;20168;-74
2021/12/29 09:32:46;;;;;;;0.82;0.50;;;;;;;;;;4985409;28;20091;-73
2021/12/29 09:35:12;;;;;;;0.60;0.50;;;;;;;;;;4978216;28;20042;-74
2021/12/29 09:37:38;;;;;;;0.60;0.35;;;;;;;;;;4992003;28;20042;-74
2021/12/29 09:40:04;;;;;;;4.32;0.50;;;;;;;;;;5008307;28;20389;-74
2021/12/29 09:42:30;;;;;;;2.10;0.70;;;;;;;;;;5013412;28;20096;-74
2021/12/29 09:44:55;;;;;;;2.60;0.70;;;;;;;;;;5003548;28;20491;-75
2021/12/29 09:47:21;;;;;;;2.00;0.68;;;;;;;;;;5004690;28;20041;-72
2021/12/29 09:49:46;;;;;;;4.50;0.95;;;;;;;;;;4976088;28;20038;-72
2021/12/29 09:52:13;;;;;;;6.53;0.68;;;;;;;;;;4995680;28;20028;-77
2021/12/29 09:54:38;;;;;;;1.58;0.50;;;;;;;;;;4979746;28;20048;-75
2021/12/29 09:57:04;;;;;;;2.63;0.63;;;;;;;;;;5013490;28;20394;-75
2021/12/29 09:59:29;;;;;;;4.55;0.80;;;;;;;;;;4959154;28;20407;-75
2021/12/29 10:01:57;;;;;;;5.18;1.05;;;;;;;;;;5007218;28;20030;-74
2021/12/29 10:04:23;;;;;;;3.13;1.13;;;;;;;;;;4996151;28;20040;-75
2021/12/29 10:06:49;;;;;;;5.97;1.25;;;;;;;;;;4995710;28;20041;-74
2021/12/29 10:09:17;;;;;;;3.42;1.55;;;;;;;;;;4965324;28;20057;-76
2021/12/29 10:11:45;;;;;;;6.13;1.00;;;;;;;;;;4979509;28;20061;-76
2021/12/29 10:14:14;;;;;;;3.08;0.85;;;;;;;;;;4990561;28;20092;-76
2021/12/29 10:16:40;;;;;;;3.10;0.70;;;;;;;;;;4995464;28;20109;-75
2021/12/29 10:19:13;;;;;;;1.65;0.43;;;;;;;;;;5012771;28;20061;-75
2021/12/29 10:21:45;;;;;;;0.85;0.57;;;;;;;;;;4995389;28;20041;-75
2021/12/29 10:24:11;;;;;;;2.93;0.70;;;;;;;;;;4966677;28;20046;-75
2021/12/29 10:26:47;;;;;;;3.95;0.82;;;;;;;;;;4995043;28;20045;-75
2021/12/29 10:29:19;;;;;;;1.10;0.55;;;;;;;;;;5012639;28;20033;-76
2021/12/29 10:31:57;;;;;;;5.82;0.93;;;;;;;;;;4995036;28;20478;-75
2021/12/29 10:34:26;;;;;;;4.88;0.80;;;;;;;;;;4997812;28;20033;-76
2021/12/29 10:36:54;;;;;;;6.72;0.95;;;;;;;;;;4994782;28;20077;-75
2021/12/29 10:39:31;;;;;;;3.42;0.63;;;;;;;;;;4996181;28;20038;-75
2021/12/29 10:41:58;;;;;;;4.40;1.17;;;;;;;;;;4978842;28;20410;-74
2021/12/29 10:44:25;;;;;;;4.15;1.02;;;;;;;;;;4977899;28;20034;-77
2021/12/29 10:46:55;;;;;;;2.97;1.05;;;;;;;;;;4994687;28;20393;-76
2021/12/29 10:49:22;;;;;;;1.98;0.70;;;;;;;;;;4959666;28;20045;-76
2021/12/29 10:51:47;;;;;;;3.40;1.00;;;;;;;;;;4977807;28;20436;-76
2021/12/29 10:54:19;;;;;;;3.13;0.98;;;;;;;;;;4978784;28;20038;-77
2021/12/29 10:56:57;;;;;;;1.58;0.70;;;;;;;;;;4992614;28;20084;-77
2021/12/29 10:59:28;;;;;;;5.15;1.25;;;;;;;;;;4973264;28;20046;-78
2021/12/29 11:01:54;;;;;;;3.07;0.80;;;;;;;;;;4998687;28;20056;-77
2021/12/29 11:04:22;;;;;;;2.40;0.80;;;;;;;;;;4988481;28;20494;-77
2021/12/29 11:06:49;;;;;;;3.28;0.98;;;;;;;;;;5009813;28;20038;-76
2021/12/29 11:09:29;;;;;;;2.95;1.10;;;;;;;;;;4983977;28;20045;-76
2021/12/29 11:11:55;;;;;;;3.33;0.65;;;;;;;;;;4961917;28;20383;-76
2021/12/29 11:14:26;;;;;;;2.72;0.85;;;;;;;;;;4976399;28;20477;-76
2021/12/29 11:17:20;;;;;;;2.65;0.98;;;;;;;;;;4974917;28;20033;-77
2021/12/29 11:19:56;;;;;;;2.42;0.70;;;;;;;;;;5007735;28;20041;-75
2021/12/29 11:22:24;;;;;;;7.35;1.67;;;;;;;;;;4975816;28;20498;-77
2021/12/29 11:25:01;;;;;;;3.30;1.35;;;;;;;;;;4974831;28;20038;-76
2021/12/29 11:27:29;;;;;;;3.05;0.90;;;;;;;;;;4992199;28;20402;-76
2021/12/29 11:30:03;;;;;;;4.70;1.20;;;;;;;;;;4983716;28;20552;-76
2021/12/29 11:32:44;;;;;;;9.88;1.20;;;;;;;;;;4975498;28;20058;-76
2021/12/29 11:35:09;;;;;;;3.30;0.80;;;;;;;;;;4974591;28;20053;-76
2021/12/29 11:37:38;;;;;;;4.63;1.42;;;;;;;;;;4974746;28;20035;-76
2021/12/29 11:40:06;;;;;;;6.50;1.17;;;;;;;;;;4998845;28;20038;-76
2021/12/29 11:42:32;;;;;;;0.85;0.70;;;;;;;;;;4993659;28;20482;-76
2021/12/29 11:44:57;;;;;;;4.10;0.70;;;;;;;;;;5011570;28;20092;-76
2021/12/29 11:47:23;;;;;;;5.50;1.48;;;;;;;;;;4974210;28;20038;-76
2021/12/29 11:49:48;;;;;;;2.67;0.90;;;;;;;;;;4991597;28;20038;-76
2021/12/29 11:52:17;;;;;;;2.75;1.00;;;;;;;;;;4990347;28;20022;-76
2021/12/29 11:55:07;;;;;;;4.35;0.85;;;;;;;;;;4993760;28;20405;-77
2021/12/29 11:57:35;;;;;;;1.77;0.82;;;;;;;;;;5012713;28;20157;-72
2021/12/29 12:00:27;;;;;;;2.30;0.80;;;;;;;;;;5017244;28;20038;-79
2021/12/29 12:03:04;;;;;;;6.13;1.25;;;;;;;;;;4985675;28;20034;-77
2021/12/29 12:05:35;;;;;;;1.55;0.63;;;;;;;;;;4968953;28;20380;-76
2021/12/29 12:08:09;;;;;;;4.18;1.10;;;;;;;;;;4977070;28;20041;-80
2021/12/29 12:10:37;;;;;;;6.07;1.70;;;;;;;;;;4972321;28;20638;-74
2021/12/29 12:13:07;;;;;;;4.38;0.90;;;;;;;;;;4985671;28;20037;-77
2021/12/29 12:15:37;;;;;;;7.53;1.08;;;;;;;;;;4966669;28;20130;-77
2021/12/29 12:18:08;;;;;;;3.47;0.95;;;;;;;;;;5003820;28;20057;-78
2021/12/29 12:20:40;;;;;;;3.20;1.30;;;;;;;;;;4998752;28;20620;-77
2021/12/29 12:23:06;;;;;;;6.00;1.45;;;;;;;;;;4977888;28;20041;-77
2021/12/29 12:25:36;;;;;;;3.67;0.80;;;;;;;;;;5009315;28;20033;-77
2021/12/29 12:28:13;;;;;;;4.78;1.10;;;;;;;;;;4991556;28;20037;-77
2021/12/29 12:30:42;;;;;;;4.18;0.70;;;;;;;;;;5009522;28;20053;-77
2021/12/29 12:33:12;;;;;;;5.00;1.00;;;;;;;;;;5009359;28;20042;-78
2021/12/29 12:35:41;;;;;;;6.53;1.55;;;;;;;;;;5003306;28;20029;-77
2021/12/29 12:38:17;;;;;;;5.97;1.42;;;;;;;;;;5009049;28;20402;-77
2021/12/29 12:40:44;;;;;;;7.63;1.50;;;;;;;;;;5009480;28;20042;-77
2021/12/29 12:43:15;;;;;;;7.82;1.50;;;;;;;;;;5008992;28;20041;-78
2021/12/29 12:45:45;;;;;;;4.57;1.40;;;;;;;;;;5008450;28;20057;-76
2021/12/29 12:48:18;;;;;;;4.95;1.20;;;;;;;;;;4991693;28;20042;-73
2021/12/29 12:50:44;;;;;;;7.30;2.13;;;;;;;;;;4975562;28;20061;-72
2021/12/29 12:53:10;;;;;;;1.63;0.75;;;;;;;;;;5008439;28;20073;-72
2021/12/29 12:55:51;;;;;;;11.20;1.60;;;;;;;;;;5009319;28;20084;-71
2021/12/29 12:58:19;;;;;;;4.37;1.33;;;;;;;;;;5008006;28;20045;-73
2021/12/29 13:01:00;;;;;;;3.55;1.23;;;;;;;;;;5008917;28;20030;-73
2021/12/29 13:03:25;;;;;;;6.88;1.73;;;;;;;;;;5008857;28;20103;-72
2021/12/29 13:05:56;;;;;;;7.72;1.73;;;;;;;;;;5009411;28;20042;-73
2021/12/29 13:08:28;;;;;;;8.15;1.50;;;;;;;;;;5008938;28;20066;-71
2021/12/29 13:11:03;;;;;;;6.47;2.45;;;;;;;;;;5012777;28;20436;-71
2021/12/29 13:13:32;;;;;;;8.48;1.35;;;;;;;;;;5013169;28;20053;-72
2021/12/29 13:16:07;;;;;;;9.55;1.42;;;;;;;;;;5012872;28;20030;-74
2021/12/29 13:18:33;;;;;;;7.82;1.65;;;;;;;;;;4994584;28;20067;-72
2021/12/29 13:21:07;;;;;;;8.57;1.75;;;;;;;;;;4994848;28;20073;-72
2021/12/29 13:23:33;;;;;;;4.10;1.48;;;;;;;;;;5012105;28;20034;-72
2021/12/29 13:25:59;;;;;;;8.27;2.15;;;;;;;;;;5012933;28;20115;-72
2021/12/29 13:28:27;;;;;;;8.25;1.40;;;;;;;;;;5012794;28;20505;-72
2021/12/29 13:31:14;;;;;;;2.90;0.90;;;;;;;;;;5011373;28;20402;-72
2021/12/29 13:33:46;;;;;;;3.88;0.90;;;;;;;;;;4995245;28;20081;-73
2021/12/29 13:36:14;;;;;;;12.30;3.05;;;;;;;;;;5012218;28;20041;-73
2021/12/29 13:38:40;;;;;;;7.68;2.00;;;;;;;;;;4995345;28;20585;-74
2021/12/29 13:41:12;;;;;;;7.35;1.70;;;;;;;;;;5011162;28;20120;-73
2021/12/29 13:43:44;;;;;;;5.40;1.50;;;;;;;;;;5012410;28;20363;-74
2021/12/29 13:46:16;;;;;;;5.43;0.90;;;;;;;;;;5002471;28;20042;-74
2021/12/29 13:48:44;;;;;;;5.72;1.33;;;;;;;;;;4992540;28;20050;-74
2021/12/29 13:51:15;;;;;;;7.05;1.48;;;;;;;;;;4992005;28;20035;-74
2021/12/29 13:53:53;;;;;;;4.90;1.50;;;;;;;;;;5006874;28;20073;-74
2021/12/29 13:56:20;;;;;;;4.10;1.25;;;;;;;;;;4974589;28;20133;-74
2021/12/29 13:59:00;;;;;;;2.17;1.20;;;;;;;;;;4992677;28;20064;-74
2021/12/29 14:01:30;;;;;;;6.88;1.60;;;;;;;;;;4975157;28;20109;-74
2021/12/29 14:03:56;;;;;;;11.52;1.80;;;;;;;;;;5006059;28;20026;-76
2021/12/29 14:06:24;;;;;;;8.68;1.70;;;;;;;;;;5011594;28;20076;-74
2021/12/29 14:08:50;;;;;;;5.75;1.02;;;;;;;;;;4994325;28;20038;-74
2021/12/29 14:11:16;;;;;;;4.03;1.30;;;;;;;;;;5011217;28;20038;-73
2021/12/29 14:13:45;;;;;;;3.03;1.00;;;;;;;;;;4987239;28;20076;-75
2021/12/29 14:16:19;;;;;;;5.95;1.65;;;;;;;;;;5011323;28;20494;-74
2021/12/29 14:18:56;;;;;;;5.80;1.42;;;;;;;;;;5012777;28;20147;-74
2021/12/29 14:21:24;;;;;;;6.45;1.75;;;;;;;;;;4994335;28;20096;-73
2021/12/29 14:24:10;;;;;;;3.25;1.42;;;;;;;;;;5012578;28;20034;-73
2021/12/29 14:26:49;;;;;;;3.83;1.58;;;;;;;;;;5012748;28;20112;-73
2021/12/29 14:29:19;;;;;;;6.93;2.10;;;;;;;;;;5012626;28;20160;-73
2021/12/29 14:31:47;;;;;;;9.27;2.00;;;;;;;;;;5012721;28;20510;-72
2021/12/29 14:34:16;;;;;;;4.05;1.35;;;;;;;;;;4994980;28;20057;-74
2021/12/29 14:36:46;;;;;;;5.10;1.55;;;;;;;;;;4994117;28;20033;-75
2021/12/29 14:39:19;;;;;;;6.07;1.67;;;;;;;;;;4994887;28;20041;-74
2021/12/29 14:41:45;;;;;;;8.77;1.50;;;;;;;;;;4978747;28;20069;-74
2021/12/29 14:44:14;;;;;;;5.15;1.25;;;;;;;;;;4994591;28;20434;-73
2021/12/29 14:46:57;;;;;;;6.68;1.55;;;;;;;;;;5011265;28;20648;-73
2021/12/29 14:49:27;;;;;;;4.75;1.38;;;;;;;;;;4987172;28;20473;-74
2021/12/29 14:51:57;;;;;;;5.47;1.20;;;;;;;;;;5012346;28;20478;-71
2021/12/29 14:54:30;;;;;;;4.93;1.50;;;;;;;;;;4994483;28;20037;-73
2021/12/29 14:56:56;;;;;;;3.40;1.67;;;;;;;;;;4994180;28;20040;-74
2021/12/29 14:59:21;;;;;;;7.25;1.60;;;;;;;;;;4993293;28;20069;-74